sensor_id;sensor_type;location;lat;lon;timestamp;temperature;humidity
52859;DHT22;38721;53.098;6.596;2023-04-30T00:01:59;4.80;99.90
52859;DHT22;38721;53.098;6.596;2023-04-30T00:04:25;4.70;99.90
52859;DHT22;38721;53.098;6.596;2023-04-30T00:06:51;4.70;99.90
52859;DHT22;38721;53.098;6.596;2023-04-30T00:09:16;4.60;99.90
52859;DHT22;38721;53.098;6.596;2023-04-30T00:11:42;4.60;99.90
52859;DHT22;38721;53.098;6.596;2023-04-30T00:14:07;4.60;99.90
52859;DHT22;38721;53.098;6.596;2023-04-30T00:16:34;4.60;99.90
52859;DHT22;38721;53.098;6.596;2023-04-30T00:19:01;4.60;99.90
52859;DHT22;38721;53.098;6.596;2023-04-30T00:21:27;4.60;99.90
52859;DHT22;38721;53.098;6.596;2023-04-30T00:23:53;4.60;99.90
52859;DHT22;38721;53.098;6.596;2023-04-30T00:26:21;4.60;99.90
52859;DHT22;38721;53.098;6.596;2023-04-30T00:28:47;4.60;99.90
52859;DHT22;38721;53.098;6.596;2023-04-30T00:31:12;4.40;99.90
52859;DHT22;38721;53.098;6.596;2023-04-30T00:33:38;4.50;99.90
52859;DHT22;38721;53.098;6.596;2023-04-30T00:36:04;4.40;99.90
52859;DHT22;38721;53.098;6.596;2023-04-30T00:38:30;4.30;99.90
52859;DHT22;38721;53.098;6.596;2023-04-30T00:40:55;4.30;99.90
52859;DHT22;38721;53.098;6.596;2023-04-30T00:43:21;4.30;99.90
52859;DHT22;38721;53.098;6.596;2023-04-30T00:45:47;4.30;99.90
52859;DHT22;38721;53.098;6.596;2023-04-30T00:48:13;4.20;99.90
52859;DHT22;38721;53.098;6.596;2023-04-30T00:50:39;4.30;99.90
52859;DHT22;38721;53.098;6.596;2023-04-30T00:53:05;4.30;99.90
52859;DHT22;38721;53.098;6.596;2023-04-30T00:55:31;4.30;99.90
52859;DHT22;38721;53.098;6.596;2023-04-30T00:57:57;4.30;99.90
52859;DHT22;38721;53.098;6.596;2023-04-30T01:00:24;4.30;99.90
52859;DHT22;38721;53.098;6.596;2023-04-30T01:02:50;4.30;99.90
52859;DHT22;38721;53.098;6.596;2023-04-30T01:05:15;4.30;99.90
52859;DHT22;38721;53.098;6.596;2023-04-30T01:07:41;4.30;99.90
52859;DHT22;38721;53.098;6.596;2023-04-30T01:10:10;4.20;99.90
52859;DHT22;38721;53.098;6.596;2023-04-30T01:18:03;4.30;99.90
52859;DHT22;38721;53.098;6.596;2023-04-30T01:20:31;4.20;99.90
52859;DHT22;38721;53.098;6.596;2023-04-30T01:23:26;4.10;99.90
52859;DHT22;38721;53.098;6.596;2023-04-30T01:26:58;4.10;99.90
52859;DHT22;38721;53.098;6.596;2023-04-30T01:28:52;4.10;99.90
52859;DHT22;38721;53.098;6.596;2023-04-30T01:31:19;4.10;99.90
52859;DHT22;38721;53.098;6.596;2023-04-30T01:33:45;4.00;99.90
52859;DHT22;38721;53.098;6.596;2023-04-30T01:42:12;4.00;99.90
52859;DHT22;38721;53.098;6.596;2023-04-30T01:50:30;3.80;99.90
52859;DHT22;38721;53.098;6.596;2023-04-30T01:53:05;3.80;99.90
52859;DHT22;38721;53.098;6.596;2023-04-30T01:55:35;3.90;99.90
52859;DHT22;38721;53.098;6.596;2023-04-30T01:58:09;3.90;99.90
52859;DHT22;38721;53.098;6.596;2023-04-30T02:00:36;3.80;99.90
52859;DHT22;38721;53.098;6.596;2023-04-30T02:03:02;3.90;99.90
52859;DHT22;38721;53.098;6.596;2023-04-30T02:05:28;3.90;99.90
52859;DHT22;38721;53.098;6.596;2023-04-30T02:07:54;4.00;99.90
52859;DHT22;38721;53.098;6.596;2023-04-30T02:10:22;3.90;99.90
52859;DHT22;38721;53.098;6.596;2023-04-30T02:12:48;3.90;99.90
52859;DHT22;38721;53.098;6.596;2023-04-30T02:15:14;4.00;99.90
52859;DHT22;38721;53.098;6.596;2023-04-30T02:17:39;3.90;99.90
52859;DHT22;38721;53.098;6.596;2023-04-30T02:20:06;3.90;99.90
52859;DHT22;38721;53.098;6.596;2023-04-30T02:22:32;4.00;99.90
52859;DHT22;38721;53.098;6.596;2023-04-30T02:24:58;4.10;99.90
52859;DHT22;38721;53.098;6.596;2023-04-30T02:27:24;4.10;99.90
52859;DHT22;38721;53.098;6.596;2023-04-30T02:29:51;4.20;99.90
52859;DHT22;38721;53.098;6.596;2023-04-30T02:32:16;4.10;99.90
52859;DHT22;38721;53.098;6.596;2023-04-30T02:34:42;4.10;99.90
52859;DHT22;38721;53.098;6.596;2023-04-30T02:37:08;4.20;99.90
52859;DHT22;38721;53.098;6.596;2023-04-30T02:39:34;4.20;99.90
52859;DHT22;38721;53.098;6.596;2023-04-30T02:42:00;4.10;99.90
52859;DHT22;38721;53.098;6.596;2023-04-30T02:44:27;4.10;99.90
52859;DHT22;38721;53.098;6.596;2023-04-30T02:46:52;4.10;99.90
52859;DHT22;38721;53.098;6.596;2023-04-30T02:49:18;4.20;99.90
52859;DHT22;38721;53.098;6.596;2023-04-30T02:51:44;4.20;99.90
52859;DHT22;38721;53.098;6.596;2023-04-30T02:54:09;4.20;99.90
52859;DHT22;38721;53.098;6.596;2023-04-30T02:56:35;4.20;99.90
52859;DHT22;38721;53.098;6.596;2023-04-30T02:59:01;4.20;99.90
52859;DHT22;38721;53.098;6.596;2023-04-30T03:01:26;4.20;99.90
52859;DHT22;38721;53.098;6.596;2023-04-30T03:03:52;4.20;99.90
52859;DHT22;38721;53.098;6.596;2023-04-30T03:06:18;4.30;99.90
52859;DHT22;38721;53.098;6.596;2023-04-30T03:08:44;4.20;99.90
52859;DHT22;38721;53.098;6.596;2023-04-30T03:11:09;4.20;99.90
52859;DHT22;38721;53.098;6.596;2023-04-30T03:13:35;4.20;99.90
52859;DHT22;38721;53.098;6.596;2023-04-30T03:16:02;4.20;99.90
52859;DHT22;38721;53.098;6.596;2023-04-30T03:18:31;4.20;99.90
52859;DHT22;38721;53.098;6.596;2023-04-30T03:20:57;4.20;99.90
52859;DHT22;38721;53.098;6.596;2023-04-30T03:23:25;4.30;99.90
52859;DHT22;38721;53.098;6.596;2023-04-30T03:25:51;4.30;99.90
52859;DHT22;38721;53.098;6.596;2023-04-30T03:28:17;4.40;99.90
52859;DHT22;38721;53.098;6.596;2023-04-30T03:30:42;4.40;99.90
52859;DHT22;38721;53.098;6.596;2023-04-30T03:33:08;4.40;99.90
52859;DHT22;38721;53.098;6.596;2023-04-30T03:35:34;4.50;99.90
52859;DHT22;38721;53.098;6.596;2023-04-30T03:38:00;4.50;99.90
52859;DHT22;38721;53.098;6.596;2023-04-30T03:40:29;4.50;99.90
52859;DHT22;38721;53.098;6.596;2023-04-30T03:42:55;4.50;99.90
52859;DHT22;38721;53.098;6.596;2023-04-30T03:45:20;4.50;99.90
52859;DHT22;38721;53.098;6.596;2023-04-30T03:47:46;4.50;99.90
52859;DHT22;38721;53.098;6.596;2023-04-30T03:50:13;4.50;99.90
52859;DHT22;38721;53.098;6.596;2023-04-30T03:52:39;4.50;99.90
52859;DHT22;38721;53.098;6.596;2023-04-30T03:55:05;4.40;99.90
52859;DHT22;38721;53.098;6.596;2023-04-30T03:57:32;4.40;99.90
52859;DHT22;38721;53.098;6.596;2023-04-30T03:59:58;4.40;99.90
52859;DHT22;38721;53.098;6.596;2023-04-30T04:02:24;4.40;99.90
52859;DHT22;38721;53.098;6.596;2023-04-30T04:04:50;4.40;99.90
52859;DHT22;38721;53.098;6.596;2023-04-30T04:07:16;4.40;99.90
52859;DHT22;38721;53.098;6.596;2023-04-30T04:09:42;4.30;99.90
52859;DHT22;38721;53.098;6.596;2023-04-30T04:12:07;4.40;99.90
52859;DHT22;38721;53.098;6.596;2023-04-30T04:14:33;4.40;99.90
52859;DHT22;38721;53.098;6.596;2023-04-30T04:17:00;4.30;99.90
52859;DHT22;38721;53.098;6.596;2023-04-30T04:19:26;4.10;99.90
52859;DHT22;38721;53.098;6.596;2023-04-30T04:21:52;4.00;99.90
52859;DHT22;38721;53.098;6.596;2023-04-30T04:24:18;4.00;99.90
52859;DHT22;38721;53.098;6.596;2023-04-30T04:26:44;4.00;99.90
52859;DHT22;38721;53.098;6.596;2023-04-30T04:29:10;4.10;99.90
52859;DHT22;38721;53.098;6.596;2023-04-30T04:31:36;4.10;99.90
52859;DHT22;38721;53.098;6.596;2023-04-30T04:34:03;4.10;99.90
52859;DHT22;38721;53.098;6.596;2023-04-30T04:36:30;4.00;99.90
52859;DHT22;38721;53.098;6.596;2023-04-30T04:38:56;4.10;99.90
52859;DHT22;38721;53.098;6.596;2023-04-30T04:41:26;4.20;99.90
52859;DHT22;38721;53.098;6.596;2023-04-30T04:43:52;4.40;99.90
52859;DHT22;38721;53.098;6.596;2023-04-30T04:46:18;4.40;99.90
52859;DHT22;38721;53.098;6.596;2023-04-30T04:48:45;4.50;99.90
52859;DHT22;38721;53.098;6.596;2023-04-30T04:51:11;4.50;99.90
52859;DHT22;38721;53.098;6.596;2023-04-30T04:53:37;4.60;99.90
52859;DHT22;38721;53.098;6.596;2023-04-30T04:56:03;4.70;99.90
52859;DHT22;38721;53.098;6.596;2023-04-30T04:58:28;4.70;99.90
52859;DHT22;38721;53.098;6.596;2023-04-30T05:00:54;4.60;99.90
52859;DHT22;38721;53.098;6.596;2023-04-30T05:03:20;4.70;99.90
52859;DHT22;38721;53.098;6.596;2023-04-30T05:05:46;4.80;99.90
52859;DHT22;38721;53.098;6.596;2023-04-30T05:08:12;4.90;99.90
52859;DHT22;38721;53.098;6.596;2023-04-30T05:10:37;4.90;99.90
52859;DHT22;38721;53.098;6.596;2023-04-30T05:13:03;5.10;99.90
52859;DHT22;38721;53.098;6.596;2023-04-30T05:15:29;5.30;99.90
52859;DHT22;38721;53.098;6.596;2023-04-30T05:17:55;5.30;99.90
52859;DHT22;38721;53.098;6.596;2023-04-30T05:20:21;5.40;99.90
52859;DHT22;38721;53.098;6.596;2023-04-30T05:22:46;5.70;99.90
52859;DHT22;38721;53.098;6.596;2023-04-30T05:25:12;5.90;99.90
52859;DHT22;38721;53.098;6.596;2023-04-30T05:27:41;6.10;99.90
52859;DHT22;38721;53.098;6.596;2023-04-30T05:30:07;6.10;99.90
52859;DHT22;38721;53.098;6.596;2023-04-30T05:32:33;6.10;99.90
52859;DHT22;38721;53.098;6.596;2023-04-30T05:34:59;6.10;99.90
52859;DHT22;38721;53.098;6.596;2023-04-30T05:37:26;6.20;99.90
52859;DHT22;38721;53.098;6.596;2023-04-30T05:39:51;6.30;99.90
52859;DHT22;38721;53.098;6.596;2023-04-30T05:42:20;6.50;99.90
52859;DHT22;38721;53.098;6.596;2023-04-30T05:44:47;6.60;99.90
52859;DHT22;38721;53.098;6.596;2023-04-30T05:47:12;6.70;99.90
52859;DHT22;38721;53.098;6.596;2023-04-30T05:49:38;6.80;99.90
52859;DHT22;38721;53.098;6.596;2023-04-30T05:52:04;6.90;99.90
52859;DHT22;38721;53.098;6.596;2023-04-30T05:54:30;7.00;99.90
52859;DHT22;38721;53.098;6.596;2023-04-30T05:56:56;7.20;99.90
52859;DHT22;38721;53.098;6.596;2023-04-30T05:59:21;7.30;99.90
52859;DHT22;38721;53.098;6.596;2023-04-30T06:01:47;7.50;99.90
52859;DHT22;38721;53.098;6.596;2023-04-30T06:04:13;7.50;99.90
52859;DHT22;38721;53.098;6.596;2023-04-30T06:06:39;7.60;99.90
52859;DHT22;38721;53.098;6.596;2023-04-30T06:09:05;7.70;99.90
52859;DHT22;38721;53.098;6.596;2023-04-30T06:11:30;7.80;99.90
52859;DHT22;38721;53.098;6.596;2023-04-30T06:13:57;8.00;99.90
52859;DHT22;38721;53.098;6.596;2023-04-30T06:16:23;8.00;99.90
52859;DHT22;38721;53.098;6.596;2023-04-30T06:18:49;8.00;99.90
52859;DHT22;38721;53.098;6.596;2023-04-30T06:21:15;8.00;99.90
52859;DHT22;38721;53.098;6.596;2023-04-30T06:23:40;8.20;99.90
52859;DHT22;38721;53.098;6.596;2023-04-30T06:26:06;8.30;99.90
52859;DHT22;38721;53.098;6.596;2023-04-30T06:28:32;8.50;99.90
52859;DHT22;38721;53.098;6.596;2023-04-30T06:30:58;8.70;99.90
52859;DHT22;38721;53.098;6.596;2023-04-30T06:33:24;8.70;99.90
52859;DHT22;38721;53.098;6.596;2023-04-30T06:35:49;8.80;99.90
52859;DHT22;38721;53.098;6.596;2023-04-30T06:38:28;8.80;99.90
52859;DHT22;38721;53.098;6.596;2023-04-30T06:40:54;9.00;99.90
52859;DHT22;38721;53.098;6.596;2023-04-30T06:43:20;9.40;99.90
52859;DHT22;38721;53.098;6.596;2023-04-30T06:45:45;9.30;99.90
52859;DHT22;38721;53.098;6.596;2023-04-30T06:48:11;9.50;99.90
52859;DHT22;38721;53.098;6.596;2023-04-30T06:50:36;9.60;99.90
52859;DHT22;38721;53.098;6.596;2023-04-30T06:53:10;9.60;99.90
52859;DHT22;38721;53.098;6.596;2023-04-30T06:55:35;9.60;99.90
52859;DHT22;38721;53.098;6.596;2023-04-30T06:58:01;9.60;99.90
52859;DHT22;38721;53.098;6.596;2023-04-30T07:00:27;9.50;99.90
52859;DHT22;38721;53.098;6.596;2023-04-30T07:02:52;9.50;99.90
52859;DHT22;38721;53.098;6.596;2023-04-30T07:05:18;9.70;99.90
52859;DHT22;38721;53.098;6.596;2023-04-30T07:07:44;9.70;99.90
52859;DHT22;38721;53.098;6.596;2023-04-30T07:10:10;9.80;99.90
52859;DHT22;38721;53.098;6.596;2023-04-30T07:12:36;9.90;99.90
52859;DHT22;38721;53.098;6.596;2023-04-30T07:15:02;9.80;99.90
52859;DHT22;38721;53.098;6.596;2023-04-30T07:17:28;10.00;99.90
52859;DHT22;38721;53.098;6.596;2023-04-30T07:19:53;10.10;99.90
52859;DHT22;38721;53.098;6.596;2023-04-30T07:22:19;10.20;99.90
52859;DHT22;38721;53.098;6.596;2023-04-30T07:24:45;10.30;99.90
52859;DHT22;38721;53.098;6.596;2023-04-30T07:27:11;10.40;99.90
52859;DHT22;38721;53.098;6.596;2023-04-30T07:29:37;10.50;99.90
52859;DHT22;38721;53.098;6.596;2023-04-30T07:32:02;10.60;99.90
52859;DHT22;38721;53.098;6.596;2023-04-30T07:34:28;10.70;99.90
52859;DHT22;38721;53.098;6.596;2023-04-30T07:36:54;10.90;99.90
52859;DHT22;38721;53.098;6.596;2023-04-30T07:39:19;10.80;99.90
52859;DHT22;38721;53.098;6.596;2023-04-30T07:41:45;10.90;99.90
52859;DHT22;38721;53.098;6.596;2023-04-30T07:44:11;10.90;99.90
52859;DHT22;38721;53.098;6.596;2023-04-30T07:46:36;11.00;99.90
52859;DHT22;38721;53.098;6.596;2023-04-30T07:49:02;11.30;99.90
52859;DHT22;38721;53.098;6.596;2023-04-30T07:51:28;11.40;99.90
52859;DHT22;38721;53.098;6.596;2023-04-30T07:53:54;11.40;99.90
52859;DHT22;38721;53.098;6.596;2023-04-30T07:56:20;11.50;99.90
52859;DHT22;38721;53.098;6.596;2023-04-30T07:58:46;11.40;99.90
52859;DHT22;38721;53.098;6.596;2023-04-30T08:01:12;11.80;99.90
52859;DHT22;38721;53.098;6.596;2023-04-30T08:03:37;11.70;99.90
52859;DHT22;38721;53.098;6.596;2023-04-30T08:06:04;11.90;99.90
52859;DHT22;38721;53.098;6.596;2023-04-30T08:08:30;11.70;99.90
52859;DHT22;38721;53.098;6.596;2023-04-30T08:10:55;11.60;99.90
52859;DHT22;38721;53.098;6.596;2023-04-30T08:13:21;11.80;99.90
52859;DHT22;38721;53.098;6.596;2023-04-30T08:15:47;12.10;99.90
52859;DHT22;38721;53.098;6.596;2023-04-30T08:18:12;12.20;99.90
52859;DHT22;38721;53.098;6.596;2023-04-30T08:20:40;12.40;99.90
52859;DHT22;38721;53.098;6.596;2023-04-30T08:23:09;12.20;99.90
52859;DHT22;38721;53.098;6.596;2023-04-30T08:25:35;12.50;99.90
52859;DHT22;38721;53.098;6.596;2023-04-30T08:28:01;12.70;99.90
52859;DHT22;38721;53.098;6.596;2023-04-30T08:30:27;12.80;99.90
52859;DHT22;38721;53.098;6.596;2023-04-30T08:32:52;12.40;99.90
52859;DHT22;38721;53.098;6.596;2023-04-30T08:35:18;12.30;99.90
52859;DHT22;38721;53.098;6.596;2023-04-30T08:37:44;12.40;99.90
52859;DHT22;38721;53.098;6.596;2023-04-30T08:40:10;12.60;99.90
52859;DHT22;38721;53.098;6.596;2023-04-30T08:42:40;12.60;99.90
52859;DHT22;38721;53.098;6.596;2023-04-30T08:45:10;12.20;99.90
52859;DHT22;38721;53.098;6.596;2023-04-30T08:47:37;12.50;99.90
52859;DHT22;38721;53.098;6.596;2023-04-30T08:50:07;12.60;99.90
52859;DHT22;38721;53.098;6.596;2023-04-30T08:52:34;12.80;99.90
52859;DHT22;38721;53.098;6.596;2023-04-30T08:55:00;13.10;99.90
52859;DHT22;38721;53.098;6.596;2023-04-30T08:57:26;13.20;99.90
52859;DHT22;38721;53.098;6.596;2023-04-30T08:59:55;13.00;99.90
52859;DHT22;38721;53.098;6.596;2023-04-30T09:02:21;13.30;99.90
52859;DHT22;38721;53.098;6.596;2023-04-30T09:04:47;12.90;99.90
52859;DHT22;38721;53.098;6.596;2023-04-30T09:07:14;12.80;99.90
52859;DHT22;38721;53.098;6.596;2023-04-30T09:09:40;13.20;99.90
52859;DHT22;38721;53.098;6.596;2023-04-30T09:12:14;13.20;99.90
52859;DHT22;38721;53.098;6.596;2023-04-30T09:14:57;13.40;99.90
52859;DHT22;38721;53.098;6.596;2023-04-30T09:17:24;13.60;99.90
52859;DHT22;38721;53.098;6.596;2023-04-30T09:19:51;13.30;95.00
52859;DHT22;38721;53.098;6.596;2023-04-30T09:22:21;13.50;99.90
52859;DHT22;38721;53.098;6.596;2023-04-30T09:24:48;13.70;99.90
52859;DHT22;38721;53.098;6.596;2023-04-30T09:27:20;13.80;99.90
52859;DHT22;38721;53.098;6.596;2023-04-30T09:29:49;14.00;99.90
52859;DHT22;38721;53.098;6.596;2023-04-30T09:32:14;14.10;99.90
52859;DHT22;38721;53.098;6.596;2023-04-30T09:34:40;13.40;99.90
52859;DHT22;38721;53.098;6.596;2023-04-30T09:37:08;13.60;99.90
52859;DHT22;38721;53.098;6.596;2023-04-30T09:39:46;13.90;1.00
52859;DHT22;38721;53.098;6.596;2023-04-30T09:42:12;14.30;99.90
52859;DHT22;38721;53.098;6.596;2023-04-30T09:44:39;14.60;1.00
52859;DHT22;38721;53.098;6.596;2023-04-30T09:47:13;14.40;99.90
52859;DHT22;38721;53.098;6.596;2023-04-30T09:49:46;14.30;99.90
52859;DHT22;38721;53.098;6.596;2023-04-30T09:52:14;14.90;99.90
52859;DHT22;38721;53.098;6.596;2023-04-30T09:54:40;14.40;16.70
52859;DHT22;38721;53.098;6.596;2023-04-30T09:57:10;14.90;99.90
52859;DHT22;38721;53.098;6.596;2023-04-30T09:59:36;15.00;99.90
52859;DHT22;38721;53.098;6.596;2023-04-30T10:02:07;15.20;1.00
52859;DHT22;38721;53.098;6.596;2023-04-30T10:04:42;15.50;99.90
52859;DHT22;38721;53.098;6.596;2023-04-30T10:07:21;15.70;1.00
52859;DHT22;38721;53.098;6.596;2023-04-30T10:10:06;15.80;99.90
52859;DHT22;38721;53.098;6.596;2023-04-30T10:12:42;16.00;99.90
52859;DHT22;38721;53.098;6.596;2023-04-30T10:15:16;16.30;1.00
52859;DHT22;38721;53.098;6.596;2023-04-30T10:17:46;15.70;99.90
52859;DHT22;38721;53.098;6.596;2023-04-30T10:20:14;16.00;32.70
52859;DHT22;38721;53.098;6.596;2023-04-30T10:22:54;16.10;99.90
52859;DHT22;38721;53.098;6.596;2023-04-30T10:25:20;15.90;99.90
52859;DHT22;38721;53.098;6.596;2023-04-30T10:27:53;15.80;99.90
52859;DHT22;38721;53.098;6.596;2023-04-30T10:30:21;16.00;36.30
52859;DHT22;38721;53.098;6.596;2023-04-30T10:35:25;16.10;1.00
52859;DHT22;38721;53.098;6.596;2023-04-30T10:38:20;16.00;1.00
52859;DHT22;38721;53.098;6.596;2023-04-30T10:40:56;16.10;1.00
52859;DHT22;38721;53.098;6.596;2023-04-30T10:43:26;16.30;99.90
52859;DHT22;38721;53.098;6.596;2023-04-30T10:45:56;16.30;99.90
52859;DHT22;38721;53.098;6.596;2023-04-30T10:48:23;16.10;99.90
52859;DHT22;38721;53.098;6.596;2023-04-30T10:50:57;16.20;33.20
52859;DHT22;38721;53.098;6.596;2023-04-30T10:53:24;16.20;99.90
52859;DHT22;38721;53.098;6.596;2023-04-30T10:55:58;16.10;99.90
52859;DHT22;38721;53.098;6.596;2023-04-30T10:58:32;16.60;1.00
52859;DHT22;38721;53.098;6.596;2023-04-30T11:01:12;16.30;99.90
52859;DHT22;38721;53.098;6.596;2023-04-30T11:03:40;16.50;1.00
52859;DHT22;38721;53.098;6.596;2023-04-30T11:06:14;16.80;99.90
52859;DHT22;38721;53.098;6.596;2023-04-30T11:08:45;16.50;99.90
52859;DHT22;38721;53.098;6.596;2023-04-30T11:11:12;16.90;99.90
52859;DHT22;38721;53.098;6.596;2023-04-30T11:13:46;16.10;99.90
52859;DHT22;38721;53.098;6.596;2023-04-30T11:16:15;16.50;99.90
52859;DHT22;38721;53.098;6.596;2023-04-30T11:18:45;16.80;1.00
52859;DHT22;38721;53.098;6.596;2023-04-30T11:21:12;16.80;76.00
52859;DHT22;38721;53.098;6.596;2023-04-30T11:23:42;16.90;1.00
52859;DHT22;38721;53.098;6.596;2023-04-30T11:26:08;16.50;99.90
52859;DHT22;38721;53.098;6.596;2023-04-30T11:28:36;17.00;99.90
52859;DHT22;38721;53.098;6.596;2023-04-30T11:31:03;17.20;1.00
52859;DHT22;38721;53.098;6.596;2023-04-30T11:33:30;16.70;99.90
52859;DHT22;38721;53.098;6.596;2023-04-30T11:35:57;16.80;99.90
52859;DHT22;38721;53.098;6.596;2023-04-30T11:38:36;17.20;1.00
52859;DHT22;38721;53.098;6.596;2023-04-30T11:41:03;17.50;1.00
52859;DHT22;38721;53.098;6.596;2023-04-30T11:43:30;17.50;99.90
52859;DHT22;38721;53.098;6.596;2023-04-30T11:46:03;17.50;99.90
52859;DHT22;38721;53.098;6.596;2023-04-30T11:48:31;17.50;99.90
52859;DHT22;38721;53.098;6.596;2023-04-30T11:50:57;17.80;35.30
52859;DHT22;38721;53.098;6.596;2023-04-30T11:53:26;18.00;99.90
52859;DHT22;38721;53.098;6.596;2023-04-30T11:55:54;18.00;99.90
52859;DHT22;38721;53.098;6.596;2023-04-30T11:58:22;18.50;99.90
52859;DHT22;38721;53.098;6.596;2023-04-30T12:00:49;18.20;99.90
52859;DHT22;38721;53.098;6.596;2023-04-30T12:03:16;17.50;1.00
52859;DHT22;38721;53.098;6.596;2023-04-30T12:05:42;17.50;99.90
52859;DHT22;38721;53.098;6.596;2023-04-30T12:08:08;17.80;99.90
52859;DHT22;38721;53.098;6.596;2023-04-30T12:10:37;17.80;1.00
52859;DHT22;38721;53.098;6.596;2023-04-30T12:13:03;17.70;99.90
52859;DHT22;38721;53.098;6.596;2023-04-30T12:15:28;18.10;99.90
52859;DHT22;38721;53.098;6.596;2023-04-30T12:17:58;18.00;99.90
52859;DHT22;38721;53.098;6.596;2023-04-30T12:20:26;18.10;99.90
52859;DHT22;38721;53.098;6.596;2023-04-30T12:22:53;18.00;99.90
52859;DHT22;38721;53.098;6.596;2023-04-30T12:25:21;18.40;1.00
52859;DHT22;38721;53.098;6.596;2023-04-30T12:27:48;18.20;99.90
52859;DHT22;38721;53.098;6.596;2023-04-30T12:30:18;17.70;16.10
52859;DHT22;38721;53.098;6.596;2023-04-30T12:32:48;18.10;99.90
52859;DHT22;38721;53.098;6.596;2023-04-30T12:35:16;18.60;99.90
52859;DHT22;38721;53.098;6.596;2023-04-30T12:37:52;18.50;99.90
52859;DHT22;38721;53.098;6.596;2023-04-30T12:40:26;18.50;99.90
52859;DHT22;38721;53.098;6.596;2023-04-30T12:43:07;18.30;87.70
52859;DHT22;38721;53.098;6.596;2023-04-30T12:45:49;18.90;99.90
52859;DHT22;38721;53.098;6.596;2023-04-30T12:48:23;18.70;98.40
52859;DHT22;38721;53.098;6.596;2023-04-30T12:50:54;18.90;99.90
52859;DHT22;38721;53.098;6.596;2023-04-30T12:53:21;19.40;99.90
52859;DHT22;38721;53.098;6.596;2023-04-30T12:58:33;19.40;70.20
52859;DHT22;38721;53.098;6.596;2023-04-30T13:00:59;19.10;1.70
52859;DHT22;38721;53.098;6.596;2023-04-30T13:03:25;19.10;1.00
52859;DHT22;38721;53.098;6.596;2023-04-30T13:05:51;19.30;99.90
52859;DHT22;38721;53.098;6.596;2023-04-30T13:08:18;19.20;1.00
52859;DHT22;38721;53.098;6.596;2023-04-30T13:10:45;19.60;1.00
52859;DHT22;38721;53.098;6.596;2023-04-30T13:13:13;19.20;1.00
52859;DHT22;38721;53.098;6.596;2023-04-30T13:15:39;19.50;1.00
52859;DHT22;38721;53.098;6.596;2023-04-30T13:18:06;19.70;1.00
52859;DHT22;38721;53.098;6.596;2023-04-30T13:20:35;19.70;1.00
52859;DHT22;38721;53.098;6.596;2023-04-30T13:23:01;19.80;99.90
52859;DHT22;38721;53.098;6.596;2023-04-30T13:25:26;19.50;99.90
52859;DHT22;38721;53.098;6.596;2023-04-30T13:27:52;19.80;99.90
52859;DHT22;38721;53.098;6.596;2023-04-30T13:30:17;19.70;99.90
52859;DHT22;38721;53.098;6.596;2023-04-30T13:32:43;19.90;99.90
52859;DHT22;38721;53.098;6.596;2023-04-30T13:35:10;20.10;99.90
52859;DHT22;38721;53.098;6.596;2023-04-30T13:37:37;20.20;99.90
52859;DHT22;38721;53.098;6.596;2023-04-30T13:40:07;20.30;99.90
52859;DHT22;38721;53.098;6.596;2023-04-30T13:42:33;20.20;99.90
52859;DHT22;38721;53.098;6.596;2023-04-30T13:44:59;20.10;99.90
52859;DHT22;38721;53.098;6.596;2023-04-30T13:47:24;19.80;99.90
52859;DHT22;38721;53.098;6.596;2023-04-30T13:49:50;20.30;99.90
52859;DHT22;38721;53.098;6.596;2023-04-30T13:52:16;19.90;99.90
52859;DHT22;38721;53.098;6.596;2023-04-30T13:54:41;20.60;99.90
52859;DHT22;38721;53.098;6.596;2023-04-30T13:57:07;20.40;99.90
52859;DHT22;38721;53.098;6.596;2023-04-30T13:59:33;20.60;99.90
52859;DHT22;38721;53.098;6.596;2023-04-30T14:01:59;20.80;99.90
52859;DHT22;38721;53.098;6.596;2023-04-30T14:04:25;21.00;99.90
52859;DHT22;38721;53.098;6.596;2023-04-30T14:06:51;21.20;99.90
52859;DHT22;38721;53.098;6.596;2023-04-30T14:09:21;20.30;2.90
52859;DHT22;38721;53.098;6.596;2023-04-30T14:11:46;20.50;1.50
52859;DHT22;38721;53.098;6.596;2023-04-30T14:14:12;20.20;1.00
52859;DHT22;38721;53.098;6.596;2023-04-30T14:16:38;20.90;99.90
52859;DHT22;38721;53.098;6.596;2023-04-30T14:19:04;21.20;90.60
52859;DHT22;38721;53.098;6.596;2023-04-30T14:21:30;21.30;38.70
52859;DHT22;38721;53.098;6.596;2023-04-30T14:23:57;20.70;1.00
52859;DHT22;38721;53.098;6.596;2023-04-30T14:26:23;21.20;31.50
52859;DHT22;38721;53.098;6.596;2023-04-30T14:28:49;21.90;99.90
52859;DHT22;38721;53.098;6.596;2023-04-30T14:31:14;21.80;42.40
52859;DHT22;38721;53.098;6.596;2023-04-30T14:33:40;22.10;95.60
52859;DHT22;38721;53.098;6.596;2023-04-30T14:36:06;22.00;1.00
52859;DHT22;38721;53.098;6.596;2023-04-30T14:38:32;22.90;51.80
52859;DHT22;38721;53.098;6.596;2023-04-30T14:40:58;23.00;70.20
52859;DHT22;38721;53.098;6.596;2023-04-30T14:43:23;23.30;83.10
52859;DHT22;38721;53.098;6.596;2023-04-30T14:45:50;23.30;1.00
52859;DHT22;38721;53.098;6.596;2023-04-30T14:48:16;24.30;54.00
52859;DHT22;38721;53.098;6.596;2023-04-30T14:50:43;25.50;99.90
52859;DHT22;38721;53.098;6.596;2023-04-30T14:53:09;25.70;99.90
52859;DHT22;38721;53.098;6.596;2023-04-30T14:55:36;25.70;8.30
52859;DHT22;38721;53.098;6.596;2023-04-30T14:58:02;25.40;1.00
52859;DHT22;38721;53.098;6.596;2023-04-30T15:00:29;26.00;1.00
52859;DHT22;38721;53.098;6.596;2023-04-30T15:02:55;26.10;1.00
52859;DHT22;38721;53.098;6.596;2023-04-30T15:05:20;26.90;1.00
52859;DHT22;38721;53.098;6.596;2023-04-30T15:07:46;25.70;99.90
52859;DHT22;38721;53.098;6.596;2023-04-30T15:10:11;25.80;99.90
52859;DHT22;38721;53.098;6.596;2023-04-30T15:12:37;25.30;99.90
52859;DHT22;38721;53.098;6.596;2023-04-30T15:15:04;26.70;99.90
52859;DHT22;38721;53.098;6.596;2023-04-30T15:17:30;26.20;99.90
52859;DHT22;38721;53.098;6.596;2023-04-30T15:19:59;26.90;99.90
52859;DHT22;38721;53.098;6.596;2023-04-30T15:22:26;26.50;99.90
52859;DHT22;38721;53.098;6.596;2023-04-30T15:24:52;26.30;99.90
52859;DHT22;38721;53.098;6.596;2023-04-30T15:27:18;27.00;99.90
52859;DHT22;38721;53.098;6.596;2023-04-30T15:29:43;28.20;99.90
52859;DHT22;38721;53.098;6.596;2023-04-30T15:32:14;28.50;99.90
52859;DHT22;38721;53.098;6.596;2023-04-30T15:34:39;28.50;99.90
52859;DHT22;38721;53.098;6.596;2023-04-30T15:37:05;29.00;99.90
52859;DHT22;38721;53.098;6.596;2023-04-30T15:39:32;28.30;99.90
52859;DHT22;38721;53.098;6.596;2023-04-30T15:41:57;28.20;99.90
52859;DHT22;38721;53.098;6.596;2023-04-30T15:44:23;27.80;99.90
52859;DHT22;38721;53.098;6.596;2023-04-30T15:46:49;27.80;71.50
52859;DHT22;38721;53.098;6.596;2023-04-30T15:49:15;29.20;99.90
52859;DHT22;38721;53.098;6.596;2023-04-30T15:51:41;28.70;55.90
52859;DHT22;38721;53.098;6.596;2023-04-30T15:54:07;28.00;1.00
52859;DHT22;38721;53.098;6.596;2023-04-30T15:56:35;27.80;1.00
52859;DHT22;38721;53.098;6.596;2023-04-30T15:59:01;27.80;1.00
52859;DHT22;38721;53.098;6.596;2023-04-30T16:05:05;28.40;1.00
52859;DHT22;38721;53.098;6.596;2023-04-30T16:07:31;28.30;1.00